Time;durP1;ratioP1;P1;durP2;ratioP2;P2;SDS_P1;SDS_P2;PMS_P1;PMS_P2;Temp;Humidity;BMP_temperature;BMP_pressure;BME280_temperature;BME280_humidity;BME280_pressure;Samples;Min_cycle;Max_cycle;Signal;HPM_P1;HPM_P2
2022/03/23 00:02:52;;;;;;;22.13;11.93;;;;;;;10.13;30.17;102035.28;5422492;32;36340;-78
2022/03/23 00:05:54;;;;;;;24.73;12.13;;;;;;;9.53;31.37;102044.59;5422969;32;35402;-77
2022/03/23 00:09:01;;;;;;;26.73;12.73;;;;;;;9.85;30.56;102034.66;5419569;32;44331;-69
2022/03/23 00:12:03;;;;;;;23.53;11.87;;;;;;;9.24;31.72;102050.97;5433087;32;35202;-68
2022/03/23 00:15:06;;;;;;;25.23;11.90;;;;;;;10.39;29.52;102034.13;5419831;32;34145;-69
2022/03/23 00:18:09;;;;;;;22.92;12.07;;;;;;;9.91;30.44;102037.25;5420229;32;33883;-78
2022/03/23 00:21:11;;;;;;;24.63;12.50;;;;;;;10.06;30.72;102036.22;5437803;32;33953;-77
2022/03/23 00:24:13;;;;;;;27.27;13.17;;;;;;;10.87;29.26;102034.38;5419709;32;33946;-69
2022/03/23 00:27:16;;;;;;;21.00;12.40;;;;;;;9.62;31.34;102034.91;5435285;32;33731;-69
2022/03/23 00:30:18;;;;;;;25.55;12.68;;;;;;;10.53;29.90;102024.31;5424370;32;37425;-77
2022/03/23 00:33:23;;;;;;;38.60;15.20;;;;;;;9.68;30.98;102036.59;5415792;32;34058;-77
2022/03/23 00:36:25;;;;;;;24.00;11.90;;;;;;;9.59;31.48;102027.03;5415813;32;35210;-78
2022/03/23 00:39:28;;;;;;;23.97;12.50;;;;;;;10.27;30.55;102028.12;5420213;32;46784;-78
2022/03/23 00:42:30;;;;;;;25.12;12.98;;;;;;;9.67;31.24;102030.50;5414171;32;34116;-68
2022/03/23 00:45:33;;;;;;;25.13;12.30;;;;;;;9.62;31.60;102027.03;5408568;32;36018;-78
2022/03/23 00:48:35;;;;;;;25.57;12.67;;;;;;;9.20;32.23;102023.84;5422274;32;33047;-68
2022/03/23 00:51:37;;;;;;;25.43;12.70;;;;;;;9.47;32.14;102021.94;5421060;32;34043;-77
2022/03/23 00:54:40;;;;;;;23.20;11.93;;;;;;;10.06;30.79;102016.97;5429384;32;34525;-77
2022/03/23 00:57:42;;;;;;;23.23;11.97;;;;;;;10.04;30.93;102020.47;5431831;32;36541;-69
2022/03/23 01:00:45;;;;;;;20.47;11.30;;;;;;;9.74;31.36;102013.78;5422188;32;33967;-78
2022/03/23 01:03:47;;;;;;;26.55;11.95;;;;;;;10.61;30.04;102017.19;5437883;32;33940;-79
2022/03/23 01:06:52;;;;;;;23.43;11.87;;;;;;;10.00;30.83;102015.28;5420997;32;35259;-68
2022/03/23 01:09:54;;;;;;;23.10;12.13;;;;;;;9.80;31.28;102015.50;5423623;32;34953;-77
2022/03/23 01:12:57;;;;;;;22.33;11.80;;;;;;;9.44;31.40;102017.56;5420650;32;37543;-75
2022/03/23 01:15:59;;;;;;;29.63;12.90;;;;;;;9.35;32.21;102009.78;5407517;32;34109;-78
2022/03/23 01:19:01;;;;;;;23.10;11.50;;;;;;;9.32;32.59;102014.16;5425833;32;35729;-79
2022/03/23 01:22:04;;;;;;;24.53;11.70;;;;;;;9.18;32.68;102016.91;5422179;32;36648;-69
2022/03/23 01:25:08;;;;;;;24.00;12.13;;;;;;;9.34;32.07;102013.28;5431846;32;35257;-77
2022/03/23 01:28:11;;;;;;;24.50;11.68;;;;;;;9.10;32.55;102009.09;5420676;32;35389;-69
2022/03/23 01:31:14;;;;;;;25.20;12.87;;;;;;;8.83;33.30;102006.66;5435809;32;33829;-76
2022/03/23 01:34:17;;;;;;;28.17;12.32;;;;;;;8.63;33.66;102010.25;5408191;32;33995;-77
2022/03/23 01:37:19;;;;;;;26.57;11.57;;;;;;;8.94;33.28;101996.94;5422250;32;34066;-79
2022/03/23 01:40:21;;;;;;;23.93;11.97;;;;;;;8.75;33.57;102000.56;5437686;32;34556;-69
2022/03/23 01:43:23;;;;;;;25.80;12.33;;;;;;;9.48;32.09;102005.28;5403770;32;35288;-78
2022/03/23 01:46:26;;;;;;;24.73;11.40;;;;;;;8.88;33.03;101997.00;5428479;32;35329;-69
2022/03/23 01:49:28;;;;;;;21.70;10.77;;;;;;;9.05;32.62;102008.25;5421533;32;45859;-77
2022/03/23 01:52:32;;;;;;;28.67;12.43;;;;;;;8.86;32.93;102004.00;5434561;32;35412;-78
2022/03/23 01:55:34;;;;;;;23.55;12.40;;;;;;;8.88;33.28;101999.59;5432782;32;35660;-78
2022/03/23 01:58:37;;;;;;;23.73;11.20;;;;;;;8.90;33.04;102000.50;5431981;32;35371;-77
2022/03/23 02:01:39;;;;;;;23.70;12.02;;;;;;;8.86;32.85;101996.13;5446642;32;35246;-69
2022/03/23 02:04:42;;;;;;;24.77;11.87;;;;;;;8.55;33.76;101995.44;5421695;32;35092;-77
2022/03/23 02:07:45;;;;;;;22.33;11.50;;;;;;;8.67;33.80;102001.47;5445553;32;33151;-78
2022/03/23 02:10:47;;;;;;;22.62;10.20;;;;;;;9.90;31.37;101992.63;5407002;32;34056;-77
2022/03/23 02:13:49;;;;;;;23.53;11.60;;;;;;;9.18;32.23;101996.78;5433280;32;34043;-69
2022/03/23 02:16:52;;;;;;;27.93;12.50;;;;;;;8.30;33.70;102005.12;5410113;32;38355;-68
2022/03/23 02:19:54;;;;;;;22.20;12.03;;;;;;;8.56;33.69;101998.03;5420744;32;34089;-70
2022/03/23 02:22:56;;;;;;;23.73;11.20;;;;;;;9.05;32.85;101995.13;5435240;32;34129;-78
2022/03/23 02:26:02;;;;;;;19.87;10.63;;;;;;;9.67;30.85;101996.37;5412218;32;44879;-69
2022/03/23 02:29:05;;;;;;;21.20;10.70;;;;;;;9.05;31.72;101997.75;5434899;32;34032;-79
2022/03/23 02:32:07;;;;;;;24.40;11.77;;;;;;;8.66;32.60;101994.50;5416990;32;34646;-77
2022/03/23 02:35:11;;;;;;;24.93;12.07;;;;;;;9.36;31.45;101997.53;5436069;32;34077;-68
2022/03/23 02:38:18;;;;;;;21.30;10.97;;;;;;;8.54;32.54;101998.94;5428515;32;33947;-69
2022/03/23 02:41:20;;;;;;;22.33;10.83;;;;;;;9.26;31.09;101982.72;5422271;32;36628;-78
2022/03/23 02:44:25;;;;;;;21.53;11.10;;;;;;;8.25;33.13;101996.44;5401676;32;34152;-69
2022/03/23 02:47:28;;;;;;;28.30;10.90;;;;;;;8.65;32.42;101991.91;5420202;32;43172;-78
2022/03/23 02:50:30;;;;;;;24.30;11.07;;;;;;;8.63;32.57;101994.53;5435602;32;35365;-69
2022/03/23 03:03:59;;;;;;;25.00;11.43;;;;;;;8.72;32.60;102000.59;5422646;32;34077;-68
2022/03/23 03:07:01;;;;;;;23.77;12.23;;;;;;;8.39;32.81;102003.37;5430568;32;35215;-68
2022/03/23 03:10:04;;;;;;;20.73;11.23;;;;;;;7.89;33.83;102003.50;5431533;32;35784;-69
2022/03/23 03:13:07;;;;;;;28.63;11.60;;;;;;;8.03;33.72;102009.56;5418749;32;33962;-70
2022/03/23 03:16:09;;;;;;;29.23;10.93;;;;;;;9.28;31.53;101996.72;5418051;32;35817;-69
2022/03/23 03:19:12;;;;;;;21.60;10.83;;;;;;;9.39;30.75;101997.47;5421735;32;34723;-78
2022/03/23 03:22:15;;;;;;;19.13;10.47;;;;;;;10.06;29.83;101995.97;5436870;32;32878;-68
2022/03/23 03:25:17;;;;;;;22.70;10.63;;;;;;;9.93;29.74;101996.09;5423570;32;34883;-69
2022/03/23 03:28:19;;;;;;;23.57;10.67;;;;;;;9.54;30.15;102002.63;5424369;32;35188;-78
2022/03/23 03:31:22;;;;;;;23.73;11.43;;;;;;;8.34;32.50;102002.50;5430532;32;34345;-78
2022/03/23 03:34:24;;;;;;;20.27;11.70;;;;;;;9.00;31.27;101996.91;5412520;32;37143;-69
2022/03/23 03:37:26;;;;;;;25.30;11.23;;;;;;;8.41;32.64;101998.12;5436886;32;33073;-69
2022/03/23 03:40:28;;;;;;;34.90;12.13;;;;;;;8.72;32.12;102003.22;5406055;32;44623;-78
2022/03/23 03:43:31;;;;;;;22.67;11.40;;;;;;;8.19;32.96;102014.78;5418753;32;34160;-68
2022/03/23 03:46:33;;;;;;;18.77;11.07;;;;;;;8.60;32.52;102005.03;5416774;32;34159;-76
2022/03/23 03:49:36;;;;;;;22.40;10.53;;;;;;;8.49;32.61;102001.56;5416312;32;34076;-68
2022/03/23 03:52:38;;;;;;;23.90;11.83;;;;;;;8.59;32.49;102002.41;5418070;32;32955;-69
2022/03/23 03:55:41;;;;;;;19.27;10.53;;;;;;;8.23;33.26;102011.25;5420932;32;34328;-68
2022/03/23 03:58:43;;;;;;;21.23;10.60;;;;;;;8.65;32.50;102016.34;5435019;32;34767;-78
2022/03/23 04:01:45;;;;;;;20.53;11.43;;;;;;;8.72;32.23;102006.72;5427015;32;33870;-78
2022/03/23 04:04:48;;;;;;;28.93;11.63;;;;;;;7.94;33.82;102013.97;5438243;32;34002;-69
2022/03/23 04:07:50;;;;;;;20.67;11.67;;;;;;;7.66;34.58;102006.16;5422439;32;34070;-78
2022/03/23 04:10:53;;;;;;;25.03;11.50;;;;;;;8.53;33.02;102007.69;5426928;32;34042;-78
2022/03/23 04:13:55;;;;;;;19.90;10.50;;;;;;;9.18;31.85;102007.28;5430538;32;34034;-69
2022/03/23 04:16:57;;;;;;;21.70;10.37;;;;;;;8.77;32.54;102007.56;5416956;32;45275;-69
2022/03/23 04:20:00;;;;;;;27.37;11.77;;;;;;;8.51;33.06;102006.84;5435850;32;34250;-79
2022/03/23 04:23:02;;;;;;;49.27;15.20;;;;;;;7.67;34.55;102026.25;5420816;32;35010;-78
2022/03/23 04:26:04;;;;;;;31.73;13.00;;;;;;;7.79;34.61;102026.25;5436541;32;35417;-69
2022/03/23 04:29:07;;;;;;;26.80;11.37;;;;;;;8.35;33.68;102000.75;5422854;32;35373;-68
2022/03/23 04:32:10;;;;;;;33.93;11.70;;;;;;;8.00;34.27;102016.59;5424017;32;33917;-69
2022/03/23 04:35:13;;;;;;;30.70;12.45;;;;;;;7.62;34.72;102028.00;5436088;32;35454;-75
2022/03/23 04:38:15;;;;;;;30.52;11.00;;;;;;;8.86;32.86;102012.75;5406730;32;33989;-79
2022/03/23 04:41:17;;;;;;;27.13;12.20;;;;;;;8.57;33.12;102017.28;5421756;32;34914;-78
2022/03/23 04:44:20;;;;;;;21.73;11.27;;;;;;;7.76;34.87;102027.97;5399260;32;36270;-68
2022/03/23 04:47:22;;;;;;;23.80;11.00;;;;;;;9.01;32.61;102009.13;5423673;32;35913;-79
2022/03/23 04:50:24;;;;;;;20.73;10.77;;;;;;;9.18;32.23;102015.16;5423794;32;34036;-69
2022/03/23 04:53:26;;;;;;;27.93;11.60;;;;;;;9.39;31.84;102019.34;5422833;32;35692;-79
2022/03/23 04:56:29;;;;;;;41.37;13.67;;;;;;;8.94;32.37;102026.66;5433322;32;45020;-78
2022/03/23 04:59:31;;;;;;;22.77;12.57;;;;;;;8.58;33.21;102025.12;5434578;32;34086;-68
2022/03/23 05:02:33;;;;;;;22.80;11.87;;;;;;;7.88;34.58;102022.72;5442530;32;34175;-68
2022/03/23 05:05:36;;;;;;;25.27;11.13;;;;;;;7.84;34.88;102032.31;5421993;32;36335;-70
2022/03/23 05:08:38;;;;;;;22.97;10.93;;;;;;;9.10;32.37;102035.31;5447464;32;34098;-69
2022/03/23 05:11:40;;;;;;;20.90;10.83;;;;;;;7.88;34.40;102030.56;5422932;32;35297;-69
2022/03/23 05:14:42;;;;;;;22.90;10.20;;;;;;;9.30;31.89;102023.81;5430430;32;33918;-68
2022/03/23 05:17:45;;;;;;;20.67;10.17;;;;;;;8.03;33.99;102027.91;5421757;32;34214;-77
2022/03/23 05:20:48;;;;;;;20.17;10.30;;;;;;;8.96;32.41;102034.53;5407580;32;33445;-68
2022/03/23 05:23:50;;;;;;;25.70;11.17;;;;;;;8.99;32.36;102034.50;5436761;32;35217;-68
2022/03/23 05:26:52;;;;;;;20.70;10.70;;;;;;;8.45;32.71;102036.56;5420428;32;34235;-69
2022/03/23 05:29:54;;;;;;;20.50;10.20;;;;;;;9.20;31.79;102031.72;5434401;32;35682;-75
2022/03/23 05:32:56;;;;;;;29.30;11.33;;;;;;;9.26;32.04;102032.56;5433871;32;35428;-79
2022/03/23 05:35:59;;;;;;;21.73;10.97;;;;;;;9.79;31.40;102040.00;5406562;32;44606;-80
2022/03/23 05:39:02;;;;;;;26.77;11.70;;;;;;;10.99;29.51;102032.44;5434549;32;34526;-69
2022/03/23 05:42:05;;;;;;;20.87;11.13;;;;;;;11.89;28.05;102033.59;5419599;32;35409;-69
2022/03/23 05:45:07;;;;;;;21.62;10.82;;;;;;;12.54;27.05;102027.06;5414116;32;35218;-69
2022/03/23 05:48:10;;;;;;;26.23;10.90;;;;;;;12.64;26.70;102031.25;5419725;32;33895;-79
2022/03/23 05:51:12;;;;;;;21.53;10.83;;;;;;;12.93;26.13;102028.81;5432622;32;35030;-69
2022/03/23 05:54:15;;;;;;;28.33;10.03;;;;;;;13.10;25.56;102031.09;5406032;32;35322;-79
2022/03/23 05:57:17;;;;;;;81.05;60.60;;;;;;;13.91;24.40;102030.81;5404069;32;34622;-76
2022/03/23 06:00:19;;;;;;;28.30;11.87;;;;;;;13.07;25.55;102036.41;5419988;32;35323;-69
2022/03/23 06:03:24;;;;;;;21.27;10.07;;;;;;;14.61;23.57;102028.88;5419922;32;37362;-78
2022/03/23 06:06:26;;;;;;;15.30;9.43;;;;;;;15.22;22.29;102023.47;5435273;32;34257;-69
2022/03/23 06:09:29;;;;;;;21.23;11.07;;;;;;;14.30;22.78;102024.47;5422975;32;44242;-69
2022/03/23 06:12:31;;;;;;;23.83;10.47;;;;;;;14.26;22.84;102027.22;5432915;32;33983;-78
2022/03/23 06:15:33;;;;;;;21.20;11.43;;;;;;;14.00;22.75;102030.59;5424114;32;35483;-69
2022/03/23 06:18:35;;;;;;;16.23;9.48;;;;;;;13.63;23.62;102026.28;5415561;32;35489;-79
2022/03/23 06:21:37;;;;;;;23.30;10.03;;;;;;;15.76;21.15;102017.25;5435967;32;35522;-78
2022/03/23 06:24:39;;;;;;;22.37;9.77;;;;;;;16.55;20.01;102003.75;5421749;32;35277;-70
2022/03/23 06:27:42;;;;;;;18.27;10.10;;;;;;;15.91;20.32;102022.03;5426863;32;34997;-70
2022/03/23 06:30:44;;;;;;;21.65;11.35;;;;;;;17.33;19.08;102020.09;5405471;32;34062;-70
2022/03/23 06:33:46;;;;;;;24.08;10.45;;;;;;;15.51;20.93;102027.78;5429590;32;34739;-70
2022/03/23 06:36:49;;;;;;;18.95;10.48;;;;;;;16.66;19.71;102017.44;5437115;32;35267;-74
2022/03/23 06:39:51;;;;;;;22.02;10.55;;;;;;;18.15;17.89;102017.47;5408466;32;34088;-76
2022/03/23 06:42:53;;;;;;;27.20;12.07;;;;;;;17.27;18.70;102024.81;5423942;32;34148;-69
2022/03/23 06:45:55;;;;;;;25.37;11.27;;;;;;;18.07;17.80;102014.31;5406630;32;34192;-75
2022/03/23 06:48:58;;;;;;;26.20;12.27;;;;;;;16.35;19.34;102025.69;5430567;32;44749;-76
2022/03/23 06:52:00;;;;;;;27.60;11.40;;;;;;;18.08;17.69;102016.03;5406405;32;34198;-69
2022/03/23 06:55:02;;;;;;;23.40;11.85;;;;;;;17.10;18.72;102017.50;5418045;32;34119;-71
2022/03/23 06:58:05;;;;;;;23.48;11.45;;;;;;;18.15;18.01;102017.47;5413863;32;36142;-75
2022/03/23 07:01:07;;;;;;;28.20;11.77;;;;;;;19.43;16.53;102011.38;5415883;32;33993;-84
2022/03/23 07:04:09;;;;;;;26.25;11.82;;;;;;;20.10;15.80;102009.72;5421034;32;34083;-64
2022/03/23 07:07:11;;;;;;;22.62;14.20;;;;;;;20.41;15.52;102008.91;5416438;32;34034;-82
2022/03/23 07:10:14;;;;;;;18.58;11.12;;;;;;;18.76;16.86;102016.50;5426045;32;33871;-65
2022/03/23 07:13:16;;;;;;;20.48;10.57;;;;;;;19.35;16.33;102010.03;5414356;32;32679;-69
2022/03/23 07:16:19;;;;;;;19.85;10.88;;;;;;;17.46;18.16;102019.59;5422977;32;36803;-67
2022/03/23 07:19:22;;;;;;;24.33;11.43;;;;;;;20.02;15.40;102007.44;5427658;32;34997;-82
2022/03/23 07:22:24;;;;;;;29.12;11.23;;;;;;;19.28;16.64;102014.81;5413046;32;35744;-75
2022/03/23 07:25:27;;;;;;;19.75;11.70;;;;;;;20.95;15.02;102004.16;5435728;32;35332;-69
2022/03/23 07:28:30;;;;;;;21.83;11.25;;;;;;;20.75;15.21;102004.41;5420760;32;45977;-71
2022/03/23 07:31:34;;;;;;;23.12;11.30;;;;;;;21.49;14.75;102011.75;5434008;32;33933;-67
2022/03/23 07:34:36;;;;;;;26.30;11.88;;;;;;;21.74;14.58;101997.75;5423681;32;34036;-69
2022/03/23 07:37:38;;;;;;;26.37;11.27;;;;;;;20.68;15.45;102003.03;5434947;32;34812;-62
2022/03/23 07:40:41;;;;;;;23.85;11.98;;;;;;;23.87;12.89;101999.09;5430822;32;33989;-71
2022/03/23 07:43:43;;;;;;;22.23;12.20;;;;;;;22.22;14.19;101999.28;5408720;32;33968;-67
2022/03/23 07:46:45;;;;;;;20.95;11.18;;;;;;;19.45;16.56;102017.50;5424301;32;35231;-70
2022/03/23 07:49:48;;;;;;;;;;;;;;;23.10;13.45;101992.69;5414519;32;34960;-69
2022/03/23 07:52:51;;;;;;;17.50;10.63;;;;;;;22.85;13.52;101996.09;5429497;32;33169;-70
2022/03/23 07:55:54;;;;;;;23.87;12.68;;;;;;;21.52;14.73;101993.72;5412852;32;34349;-74
2022/03/23 07:58:58;;;;;;;24.35;12.20;;;;;;;20.38;15.78;101995.72;5416487;32;44588;-69
2022/03/23 08:02:01;;;;;;;31.65;12.60;;;;;;;20.66;15.76;102002.25;5427416;32;34192;-72
2022/03/23 08:05:05;;;;;;;43.75;15.27;;;;;;;20.04;16.25;102003.84;5407755;32;36528;-69
2022/03/23 08:08:09;;;;;;;25.52;12.37;;;;;;;21.89;14.76;101999.50;5425392;32;34617;-70
2022/03/23 08:11:11;;;;;;;23.08;12.40;;;;;;;22.21;14.48;102000.22;5423215;32;33891;-85
2022/03/23 08:14:15;;;;;;;24.00;12.52;;;;;;;20.30;15.78;101997.97;5418191;32;34077;-78
2022/03/23 08:17:19;;;;;;;25.00;12.93;;;;;;;19.74;16.49;102009.84;5418554;32;33930;-78
2022/03/23 08:20:37;;;;;;;23.12;13.70;;;;;;;20.11;16.35;101999.91;5418557;32;37242;-74
2022/03/23 08:23:40;;;;;;;26.42;15.30;;;;;;;18.26;18.39;102007.22;5412370;32;33988;-72
2022/03/23 08:26:46;;;;;;;21.73;12.77;;;;;;;19.17;17.40;102010.00;5402521;32;34732;-67
2022/03/23 08:29:48;;;;;;;21.30;12.35;;;;;;;17.78;18.86;102010.28;5410926;32;35160;-71
2022/03/23 08:32:51;;;;;;;22.17;11.70;;;;;;;16.81;19.82;102004.53;5418817;32;33773;-70
2022/03/23 08:35:53;;;;;;;24.35;12.40;;;;;;;17.84;18.68;101997.56;5408683;32;34810;-68
2022/03/23 08:38:55;;;;;;;21.98;11.80;;;;;;;18.12;18.37;101993.69;5424877;32;34319;-67
2022/03/23 08:42:01;;;;;;;28.10;12.37;;;;;;;17.23;19.32;101997.47;5416076;32;44394;-70
2022/03/23 08:45:05;;;;;;;20.95;11.40;;;;;;;16.74;19.85;102002.13;5409927;32;34503;-72
2022/03/23 08:48:09;;;;;;;22.30;11.02;;;;;;;16.93;19.73;101990.75;5417669;32;35040;-72
2022/03/23 08:51:11;;;;;;;20.98;11.70;;;;;;;16.91;19.69;101992.63;5426065;32;33961;-76
2022/03/23 08:54:14;;;;;;;23.62;12.05;;;;;;;17.85;19.01;101991.31;5417900;32;34030;-76
2022/03/23 08:57:16;;;;;;;22.50;11.25;;;;;;;20.80;16.19;101978.28;5417736;32;33521;-75
2022/03/23 09:00:18;;;;;;;20.70;11.90;;;;;;;20.95;15.94;101981.91;5432855;32;34990;-68
2022/03/23 09:03:20;;;;;;;;;;;;;;;23.21;14.17;101974.06;5422748;32;35767;-69
2022/03/23 09:06:23;;;;;;;20.75;10.82;;;;;;;23.54;13.30;101972.75;5432102;32;33952;-77
2022/03/23 09:09:25;;;;;;;21.25;10.85;;;;;;;22.80;14.33;101971.44;5418389;32;35256;-77
2022/03/23 09:12:28;;;;;;;21.40;12.68;;;;;;;24.53;12.90;101962.19;5434267;32;46491;-73
2022/03/23 09:15:30;;;;;;;19.75;10.82;;;;;;;24.73;12.47;101960.72;5417949;32;34023;-73
2022/03/23 09:18:32;;;;;;;;;;;;;;;22.71;14.07;101963.97;5417723;32;34010;-74
2022/03/23 09:21:34;;;;;;;19.37;11.68;;;;;;;25.87;11.93;101954.69;5423349;32;35233;-80
2022/03/23 09:24:37;;;;;;;20.65;10.73;;;;;;;26.29;11.19;101943.28;5411256;32;34370;-75
2022/03/23 09:27:40;;;;;;;;;;;;;;;25.46;12.07;101946.28;5420478;32;34158;-73
2022/03/23 09:30:42;;;;;;;18.27;9.35;;;;;;;28.20;10.07;101937.84;5414712;32;34417;-74
2022/03/23 09:33:48;;;;;;;19.42;10.07;;;;;;;25.52;11.43;101943.97;5435732;32;34224;-73
2022/03/23 09:40:12;;;;;;;19.60;9.98;;;;;;;27.24;10.37;101947.09;5417170;32;34410;-70
2022/03/23 09:43:17;;;;;;;17.58;9.73;;;;;;;28.20;9.96;101929.72;5418850;32;34769;-73
2022/03/23 09:46:20;;;;;;;16.40;9.23;;;;;;;25.89;11.32;101933.00;5420718;32;34744;-80
2022/03/23 09:49:23;;;;;;;18.42;10.00;;;;;;;24.80;11.85;101943.19;5430630;32;33775;-74
2022/03/23 09:52:27;;;;;;;15.55;8.27;;;;;;;26.27;11.22;101935.31;5432092;32;35258;-74
2022/03/23 09:55:30;;;;;;;19.73;10.02;;;;;;;25.89;10.93;101936.59;5427685;32;44642;-69
2022/03/23 09:58:32;;;;;;;24.20;9.63;;;;;;;25.22;11.66;101939.09;5432922;32;34109;-73
2022/03/23 10:01:46;;;;;;;14.25;8.18;;;;;;;27.90;10.11;101917.97;5432294;32;35488;-70
2022/03/23 10:04:49;;;;;;;17.37;9.35;;;;;;;31.00;7.54;101911.97;5440196;32;34039;-79
2022/03/23 10:07:56;;;;;;;17.58;8.35;;;;;;;31.14;7.56;101914.13;5421914;32;34911;-73
2022/03/23 10:11:36;;;;;;;14.50;8.05;;;;;;;29.88;8.18;101903.22;5431454;32;44552;-70
2022/03/23 10:15:15;;;;;;;21.30;8.70;;;;;;;28.56;9.00;101902.09;5431252;32;35242;-73
2022/03/23 10:18:21;;;;;;;14.90;8.05;;;;;;;26.85;10.05;101908.97;5425720;32;34198;-71
2022/03/23 10:21:35;;;;;;;14.02;8.43;;;;;;;26.38;10.26;101905.66;5431262;32;34249;-81
2022/03/23 10:24:38;;;;;;;13.35;8.00;;;;;;;27.46;9.68;101903.78;5425809;32;34396;-73
2022/03/23 10:27:40;;;;;;;17.50;8.48;;;;;;;25.84;10.69;101906.47;5423937;32;35078;-70
2022/03/23 10:30:44;;;;;;;13.15;7.95;;;;;;;27.52;9.65;101897.84;5433352;32;34018;-71
2022/03/23 10:34:07;;;;;;;18.33;9.93;;;;;;;27.30;10.04;101892.56;5425876;32;34106;-69
2022/03/23 10:37:12;;;;;;;15.90;8.80;;;;;;;29.51;8.80;101882.44;5425377;32;35655;-70
2022/03/23 10:40:19;;;;;;;13.98;7.75;;;;;;;28.43;9.21;101877.16;5426185;32;33731;-74
2022/03/23 10:43:34;;;;;;;13.88;7.32;;;;;;;28.38;8.69;101873.19;5391402;32;35351;-79
2022/03/23 10:46:40;;;;;;;12.10;7.35;;;;;;;26.76;9.62;101877.37;5422125;32;46054;-76
2022/03/23 10:49:43;;;;;;;15.40;8.45;;;;;;;26.15;10.19;101874.34;5413429;32;35199;-68
2022/03/23 10:52:57;;;;;;;16.10;8.23;;;;;;;25.57;10.45;101870.94;5426346;32;35218;-73
2022/03/23 10:56:01;;;;;;;14.50;7.90;;;;;;;31.95;6.99;101848.62;5414301;32;44354;-70
2022/03/23 10:59:22;;;;;;;15.35;8.27;;;;;;;29.29;8.41;101850.22;5420072;32;33903;-73
2022/03/23 11:02:24;;;;;;;16.02;8.25;;;;;;;31.13;7.27;101860.84;5427492;32;35545;-71
2022/03/23 11:05:38;;;;;;;12.25;7.00;;;;;;;33.18;6.28;101840.63;5424026;32;44345;-75
2022/03/23 11:08:43;;;;;;;16.33;7.05;;;;;;;27.16;9.07;101844.34;5435233;32;34385;-84
2022/03/23 11:18:38;;;;;;;15.60;6.93;;;;;;;28.21;8.45;101836.81;5429214;32;37372;-74
2022/03/23 11:22:00;;;;;;;13.65;7.50;;;;;;;27.26;9.08;101829.06;5419514;32;34623;-72
2022/03/23 11:25:03;;;;;;;12.55;7.97;;;;;;;29.14;8.21;101822.78;5427713;32;44695;-79
2022/03/23 11:28:06;;;;;;;17.77;7.72;;;;;;;25.67;10.49;101828.81;5424821;32;34381;-82
2022/03/23 11:31:10;;;;;;;15.80;8.20;;;;;;;25.81;10.44;101819.66;5426405;32;33940;-83
2022/03/23 11:34:18;;;;;;;14.57;7.80;;;;;;;29.14;8.37;101809.25;5434398;32;35131;-83
2022/03/23 11:37:23;;;;;;;15.95;9.77;;;;;;;29.41;8.01;101813.84;5421226;32;34521;-80
2022/03/23 11:40:26;;;;;;;18.60;7.82;;;;;;;25.30;10.57;101806.66;5433942;32;33424;-85
2022/03/23 11:43:29;;;;;;;16.25;7.43;;;;;;;26.53;9.42;101806.50;5411458;32;44384;-69
2022/03/23 11:46:50;;;;;;;11.23;5.90;;;;;;;26.61;9.93;101800.50;5419212;32;33957;-73
2022/03/23 11:50:26;;;;;;;12.70;7.07;;;;;;;27.90;7.94;101776.63;5433161;32;34108;-75
2022/03/23 11:53:47;;;;;;;12.30;6.75;;;;;;;26.31;9.40;101785.87;5392919;32;37347;-74
2022/03/23 11:56:58;;;;;;;11.98;6.30;;;;;;;25.72;9.98;101783.53;5430420;32;34174;-74
2022/03/23 12:00:01;;;;;;;13.80;6.05;;;;;;;29.37;7.68;101763.72;5426251;32;46631;-75
2022/03/23 12:03:03;;;;;;;17.90;7.12;;;;;;;27.48;7.87;101764.09;5422449;32;34034;-73
2022/03/23 12:06:13;;;;;;;15.52;7.43;;;;;;;26.91;8.72;101757.38;5438623;32;33119;-76
2022/03/23 12:09:34;;;;;;;14.15;6.85;;;;;;;27.61;8.51;101753.03;5422350;32;33752;-72
2022/03/23 12:12:39;;;;;;;13.02;6.60;;;;;;;28.37;8.07;101745.25;5429939;32;44479;-71
2022/03/23 12:15:58;;;;;;;15.40;6.05;;;;;;;30.39;6.94;101741.81;5423355;32;35123;-80
2022/03/23 12:19:00;;;;;;;10.23;5.78;;;;;;;30.55;6.28;101728.41;5420580;32;44591;-73
2022/03/23 12:22:06;;;;;;;13.57;6.40;;;;;;;29.21;6.87;101734.56;5424948;32;35386;-67
2022/03/23 12:25:20;;;;;;;12.98;6.65;;;;;;;30.80;6.47;101717.75;5415423;32;34048;-81
2022/03/23 12:28:31;;;;;;;14.30;7.50;;;;;;;31.27;6.14;101710.91;5429335;32;34126;-74
2022/03/23 12:31:39;;;;;;;15.48;6.45;;;;;;;32.25;5.98;101713.00;5414246;32;46118;-76
2022/03/23 12:34:45;;;;;;;11.15;6.53;;;;;;;33.12;5.52;101709.53;5419687;32;34782;-85
2022/03/23 12:37:48;;;;;;;12.85;6.60;;;;;;;28.12;7.86;101705.25;5433416;32;35072;-76
2022/03/23 12:40:51;;;;;;;16.48;6.03;;;;;;;28.92;7.56;101706.72;5416747;32;36679;-81
2022/03/23 12:43:53;;;;;;;10.18;5.18;;;;;;;32.43;5.40;101699.28;5413498;32;35268;-73
2022/03/23 12:46:55;;;;;;;10.95;5.45;;;;;;;34.87;4.16;101688.88;5421774;32;33556;-75
2022/03/23 13:00:08;;;;;;;14.33;5.97;;;;;;;32.06;5.19;101685.13;5432326;32;44478;-75
2022/03/23 13:03:11;;;;;;;11.43;6.45;;;;;;;32.09;5.28;101670.38;5423378;32;33916;-72
2022/03/23 13:06:16;;;;;;;14.30;6.60;;;;;;;30.50;6.00;101673.75;5418463;32;34046;-73
2022/03/23 13:09:25;;;;;;;10.02;5.50;;;;;;;30.05;6.33;101672.03;5435151;32;34298;-75
2022/03/23 13:12:27;;;;;;;9.57;5.50;;;;;;;30.17;5.90;101665.38;5412363;32;36816;-79
2022/03/23 13:15:30;;;;;;;10.73;5.97;;;;;;;30.42;6.02;101671.84;5417157;32;35071;-74
2022/03/23 13:18:35;;;;;;;15.95;6.95;;;;;;;32.27;5.38;101652.00;5427933;32;34079;-75
2022/03/23 13:21:38;;;;;;;12.37;6.10;;;;;;;32.87;5.04;101654.31;5413311;32;34012;-75
2022/03/23 13:24:40;;;;;;;11.40;6.20;;;;;;;34.63;4.19;101646.31;5412241;32;98095;-80
2022/03/23 13:27:47;;;;;;;10.60;5.62;;;;;;;34.83;4.27;101643.84;5418361;32;34024;-74
2022/03/23 13:30:57;;;;;;;13.45;6.15;;;;;;;33.61;4.63;101643.06;5435629;32;34208;-77
2022/03/23 13:34:09;;;;;;;12.67;5.57;;;;;;;33.84;4.60;101638.47;5420363;32;45901;-78
2022/03/23 13:37:11;;;;;;;10.02;5.20;;;;;;;32.36;4.71;101643.84;5430742;32;34198;-80
2022/03/23 13:40:14;;;;;;;10.02;4.97;;;;;;;30.38;5.47;101643.34;5422388;32;33990;-82
2022/03/23 13:43:19;;;;;;;10.85;5.47;;;;;;;27.81;6.71;101635.12;5400389;32;34068;-77
2022/03/23 13:46:23;;;;;;;11.55;5.28;;;;;;;25.33;8.11;101642.28;5422746;32;36192;-77
2022/03/23 13:49:26;;;;;;;12.40;6.25;;;;;;;26.19;7.67;101627.91;5413868;32;34245;-76
2022/03/23 13:52:28;;;;;;;;;;;;;;;25.13;8.83;101625.06;5429694;32;46620;-76
2022/03/23 13:55:30;;;;;;;13.05;6.32;;;;;;;25.28;9.06;101625.66;5421080;32;33432;-76
2022/03/23 13:58:33;;;;;;;13.02;5.82;;;;;;;24.57;9.42;101619.66;5429085;32;34084;-74
2022/03/23 14:01:42;;;;;;;17.48;7.35;;;;;;;24.35;9.59;101615.12;5405785;32;33988;-82
2022/03/23 14:04:45;;;;;;;13.10;6.37;;;;;;;24.80;9.34;101612.47;5428390;32;34106;-84
2022/03/23 14:07:49;;;;;;;13.00;6.25;;;;;;;23.70;10.00;101610.22;5431033;32;33893;-86
2022/03/23 14:10:51;;;;;;;12.50;6.03;;;;;;;24.32;9.72;101600.03;5421378;32;33853;-80
2022/03/23 14:13:54;;;;;;;13.70;6.45;;;;;;;23.62;9.92;101608.09;5426634;32;33682;-75
2022/03/23 14:17:23;;;;;;;12.25;5.87;;;;;;;23.54;10.11;101594.38;5417976;32;34126;-75
2022/03/23 14:20:26;;;;;;;14.10;6.68;;;;;;;21.87;11.00;101600.81;5418983;32;34745;-77
2022/03/23 14:23:30;;;;;;;13.25;6.62;;;;;;;23.00;10.46;101588.56;5430886;32;46504;-74
2022/03/23 14:26:33;;;;;;;14.80;6.18;;;;;;;21.78;11.21;101597.91;5414466;32;35787;-82
2022/03/23 14:29:35;;;;;;;18.02;7.20;;;;;;;22.56;10.71;101587.22;5438318;32;33957;-78
2022/03/23 14:32:41;;;;;;;15.38;6.18;;;;;;;21.79;11.26;101588.91;5417735;32;34216;-73
2022/03/23 14:35:44;;;;;;;16.17;6.37;;;;;;;22.06;10.93;101576.31;5426112;32;33809;-84
2022/03/23 14:38:47;;;;;;;17.40;7.57;;;;;;;22.41;10.93;101575.72;5422874;32;35481;-83